createdAt,value
2023-01-25T00:02:07.157Z,14.93
2023-01-25T00:04:54.546Z,14.37
2023-01-25T00:07:41.497Z,15.77
2023-01-25T00:10:28.947Z,14.53
2023-01-25T00:13:15.876Z,13.43
2023-01-25T00:16:21.714Z,13.90
2023-01-25T00:19:04.059Z,15.33
2023-01-25T00:21:51.250Z,15.03
2023-01-25T00:24:58.215Z,16.60
2023-01-25T00:27:45.565Z,16.27
2023-01-25T00:30:12.902Z,18.37
2023-01-25T00:33:17.549Z,15.53
2023-01-25T00:36:40.708Z,18.50
2023-01-25T00:39:42.588Z,15.10
2023-01-25T00:42:15.983Z,17.10
2023-01-25T00:45:02.917Z,17.77
2023-01-25T00:47:50.544Z,16.83
2023-01-25T00:50:37.542Z,18.13
2023-01-25T00:53:04.793Z,16.90
2023-01-25T00:55:52.563Z,18.67
2023-01-25T00:58:54.323Z,20.90
2023-01-25T01:01:56.303Z,18.07
2023-01-25T01:04:26.682Z,19.67
2023-01-25T01:07:14.858Z,23.20
2023-01-25T01:10:02.036Z,22.63
2023-01-25T01:12:48.969Z,20.83
2023-01-25T01:15:16.187Z,18.60
2023-01-25T01:18:23.196Z,19.43
2023-01-25T01:21:25.009Z,17.53
2023-01-25T01:24:27.331Z,18.00
2023-01-25T01:27:09.287Z,18.10
2023-01-25T01:29:56.455Z,18.10
2023-01-25T01:32:43.454Z,19.77
2023-01-25T01:35:30.763Z,17.90
2023-01-25T01:38:17.691Z,20.10
2023-01-25T01:41:05.124Z,18.07
2023-01-25T01:43:53.204Z,20.00
2023-01-25T01:47:01.964Z,19.17
2023-01-25T01:49:50.137Z,20.83
2023-01-25T01:52:52.099Z,19.53
2023-01-25T01:55:40.239Z,21.90
2023-01-25T01:59:07.617Z,19.37
2023-01-25T02:02:29.424Z,19.63
2023-01-25T02:05:19.772Z,17.33
2023-01-25T02:08:09.506Z,19.93
2023-01-25T02:11:11.628Z,22.33
2023-01-25T02:13:59.750Z,16.77
2023-01-25T02:17:06.815Z,21.23
2023-01-25T02:20:22.179Z,19.37
2023-01-25T02:23:24.916Z,18.27
2023-01-25T02:26:26.839Z,17.67
2023-01-25T02:29:24.625Z,16.80
2023-01-25T02:32:13.461Z,17.97
2023-01-25T02:35:19.599Z,17.57
2023-01-25T02:38:21.459Z,17.03
2023-01-25T02:41:14.089Z,14.67
2023-01-25T02:44:10.070Z,21.43
2023-01-25T02:46:57.314Z,16.20
2023-01-25T02:50:04.283Z,18.33
2023-01-25T02:53:06.062Z,18.43
2023-01-25T02:55:51.055Z,16.93
2023-01-25T02:58:38.238Z,20.80
2023-01-25T03:01:25.187Z,21.13
2023-01-25T03:04:12.459Z,16.23
2023-01-25T03:06:59.382Z,17.83
2023-01-25T03:09:46.586Z,16.23
2023-01-25T03:12:33.513Z,17.30
2023-01-25T03:15:35.324Z,12.83
2023-01-25T03:18:17.240Z,14.63
2023-01-25T03:21:19.868Z,11.83
2023-01-25T03:24:07.438Z,14.40
2023-01-25T03:27:14.649Z,12.10
2023-01-25T03:29:56.535Z,11.53
2023-01-25T03:32:43.765Z,10.27
2023-01-25T03:35:30.627Z,9.83
2023-01-25T03:38:19.822Z,11.67
2023-01-25T03:41:07.913Z,9.80
2023-01-25T03:44:11.612Z,11.23
2023-01-25T03:47:13.460Z,11.03
2023-01-25T03:50:15.293Z,11.53
2023-01-25T03:53:06.164Z,6.63
2023-01-25T03:56:09.099Z,11.17
2023-01-25T03:59:11.933Z,6.70
2023-01-25T04:02:14.794Z,8.47
2023-01-25T04:04:56.652Z,7.17
2023-01-25T04:07:43.844Z,7.43
2023-01-25T04:10:30.948Z,11.73
2023-01-25T04:13:18.154Z,9.63
2023-01-25T04:16:07.169Z,7.47
2023-01-25T04:18:54.376Z,7.27
2023-01-25T04:21:41.271Z,15.60
2023-01-25T04:24:28.587Z,9.83
2023-01-25T04:26:55.540Z,11.33
2023-01-25T04:29:42.830Z,10.73
2023-01-25T04:32:49.901Z,12.43
2023-01-25T04:35:37.234Z,10.23
2023-01-25T04:38:24.349Z,11.77
2023-01-25T04:41:29.219Z,13.30
2023-01-25T04:44:16.423Z,13.93
2023-01-25T04:47:03.870Z,12.27
2023-01-25T04:49:31.271Z,11.70
2023-01-25T04:52:38.173Z,13.17
2023-01-25T04:55:25.489Z,11.27
2023-01-25T04:58:12.460Z,13.00
2023-01-25T05:00:54.349Z,13.50
2023-01-25T05:03:41.590Z,12.50
2023-01-25T05:06:28.472Z,12.77
2023-01-25T05:09:30.881Z,13.90
2023-01-25T05:12:13.784Z,16.00
2023-01-25T05:15:15.595Z,19.83
2023-01-25T05:18:22.798Z,16.70
2023-01-25T05:21:48.868Z,16.13
2023-01-25T05:24:50.627Z,17.50
2023-01-25T05:27:38.692Z,15.60
2023-01-25T05:30:06.303Z,18.00
2023-01-25T05:32:53.532Z,15.20
2023-01-25T05:35:40.515Z,19.17
2023-01-25T05:38:42.405Z,21.07
2023-01-25T05:41:24.270Z,21.30
2023-01-25T05:44:11.444Z,15.73
2023-01-25T05:47:38.239Z,18.43
2023-01-25T05:50:40.023Z,20.37
2023-01-25T05:53:41.834Z,21.13
2023-01-25T05:56:29.265Z,24.10
2023-01-25T05:59:17.403Z,21.37
2023-01-25T06:02:19.290Z,25.63
2023-01-25T06:05:21.177Z,19.77
2023-01-25T06:08:22.960Z,24.33
2023-01-25T06:10:50.777Z,27.80
2023-01-25T06:13:57.679Z,22.70
2023-01-25T06:16:59.564Z,18.87
2023-01-25T06:19:46.877Z,21.90
2023-01-25T06:22:13.918Z,24.73
2023-01-25T06:25:15.718Z,23.13
2023-01-25T06:28:02.893Z,22.80
2023-01-25T06:31:09.878Z,24.53
2023-01-25T06:33:37.749Z,25.47
2023-01-25T06:36:25.986Z,24.77
2023-01-25T06:39:33.107Z,21.97
2023-01-25T06:42:39.982Z,25.63
2023-01-25T06:45:27.389Z,25.97
2023-01-25T06:48:54.247Z,19.87
2023-01-25T06:52:15.975Z,23.43
2023-01-25T06:55:23.692Z,28.50
2023-01-25T06:58:10.607Z,25.60
2023-01-25T07:00:57.813Z,25.77
2023-01-25T07:03:24.763Z,24.57
2023-01-25T07:06:12.207Z,21.73
2023-01-25T07:09:23.838Z,25.20
2023-01-25T07:12:26.056Z,24.93
2023-01-25T07:14:53.315Z,26.27
2023-01-25T07:18:14.832Z,23.23
2023-01-25T07:21:06.422Z,28.23
2023-01-25T07:23:54.125Z,27.73
2023-01-25T07:26:35.997Z,25.23
2023-01-25T07:29:23.317Z,30.83
2023-01-25T07:32:11.955Z,31.17
2023-01-25T07:35:33.732Z,26.73
2023-01-25T07:38:40.948Z,29.13
2023-01-25T07:41:28.066Z,29.90
2023-01-25T07:44:10.736Z,32.47
2023-01-25T07:46:58.016Z,32.40
2023-01-25T07:50:05.077Z,29.70
2023-01-25T07:52:52.295Z,34.37
2023-01-25T07:55:19.512Z,29.97
2023-01-25T07:58:21.568Z,37.07
2023-01-25T08:01:32.120Z,29.70
2023-01-25T08:04:54.189Z,29.33
2023-01-25T08:08:15.898Z,30.23
2023-01-25T08:11:17.706Z,26.40
2023-01-25T08:13:46.310Z,29.17
2023-01-25T08:16:33.452Z,26.87
2023-01-25T08:19:35.710Z,33.13
2023-01-25T08:22:37.604Z,30.97
2023-01-25T08:25:19.473Z,31.70
2023-01-25T08:28:21.432Z,28.47
2023-01-25T08:31:31.901Z,34.40
2023-01-25T08:34:19.500Z,29.73
2023-01-25T08:37:06.447Z,34.80
2023-01-25T08:39:53.787Z,38.30
2023-01-25T08:42:43.155Z,33.60
2023-01-25T08:45:24.989Z,34.80
2023-01-25T08:47:52.212Z,37.37
2023-01-25T08:50:19.267Z,38.43
2023-01-25T08:52:46.511Z,33.77
2023-01-25T08:55:13.462Z,31.60
2023-01-25T08:57:41.181Z,31.27
2023-01-25T09:00:09.130Z,39.23
2023-01-25T09:02:36.857Z,40.00
2023-01-25T09:05:03.972Z,31.70
2023-01-25T09:07:32.542Z,31.13
2023-01-25T09:10:00.545Z,35.67
2023-01-25T09:12:27.816Z,36.87
2023-01-25T09:14:54.748Z,34.73
2023-01-25T09:17:21.971Z,35.53
2023-01-25T09:19:52.451Z,37.77
2023-01-25T09:22:19.818Z,37.57
2023-01-25T09:24:52.293Z,32.07
2023-01-25T09:27:19.697Z,33.80
2023-01-25T09:30:01.001Z,43.73
2023-01-25T09:32:29.760Z,32.57
2023-01-25T09:34:56.852Z,34.30
2023-01-25T09:37:24.110Z,34.83
2023-01-25T09:39:51.150Z,34.50
2023-01-25T09:42:32.675Z,33.63
2023-01-25T09:45:22.739Z,37.40
2023-01-25T09:47:59.313Z,40.17
2023-01-25T09:50:35.446Z,35.10
2023-01-25T09:53:24.520Z,37.97
2023-01-25T09:55:54.374Z,38.80
2023-01-25T09:58:43.198Z,34.03
2023-01-25T10:01:36.616Z,36.40
2023-01-25T10:04:18.620Z,39.17
2023-01-25T10:07:00.108Z,37.87
2023-01-25T10:09:47.003Z,40.80
2023-01-25T10:12:25.219Z,37.50
2023-01-25T10:14:53.146Z,40.03
2023-01-25T10:17:39.100Z,37.30
2023-01-25T10:20:10.098Z,34.50
2023-01-25T10:22:45.348Z,40.77
2023-01-25T10:25:29.322Z,42.53
2023-01-25T10:28:14.734Z,43.77
2023-01-25T10:31:07.963Z,35.03
2023-01-25T10:33:40.647Z,41.53
2023-01-25T10:36:18.313Z,38.20
2023-01-25T10:38:59.139Z,43.93
2023-01-25T10:41:43.034Z,41.87
2023-01-25T10:44:21.859Z,40.13
2023-01-25T10:47:16.821Z,38.80
2023-01-25T10:49:48.469Z,53.27
2023-01-25T10:52:27.509Z,41.97
2023-01-25T10:55:15.994Z,45.03
2023-01-25T10:57:53.652Z,43.30
2023-01-25T11:00:40.488Z,38.47
2023-01-25T11:03:20.944Z,43.37
2023-01-25T11:05:57.679Z,44.80
2023-01-25T11:08:30.857Z,45.77
2023-01-25T11:10:59.528Z,40.70
2023-01-25T11:13:29.150Z,48.17
2023-01-25T11:16:18.221Z,43.83
2023-01-25T11:18:53.818Z,44.60
2023-01-25T11:21:30.003Z,43.73
2023-01-25T11:24:09.738Z,43.33
2023-01-25T11:26:39.142Z,45.10
2023-01-25T11:29:07.949Z,41.53
2023-01-25T11:31:35.624Z,41.80
2023-01-25T11:34:03.416Z,49.70
2023-01-25T11:36:42.396Z,42.37
2023-01-25T11:39:31.335Z,44.50
2023-01-25T11:42:04.378Z,51.97
2023-01-25T11:44:46.586Z,46.90
2023-01-25T11:47:42.943Z,36.83
2023-01-25T11:50:21.680Z,42.17
2023-01-25T11:53:12.854Z,45.67
2023-01-25T11:56:11.621Z,44.63
2023-01-25T11:59:08.800Z,42.97
2023-01-25T12:02:08.625Z,44.40
2023-01-25T12:04:49.852Z,43.40
2023-01-25T12:07:43.041Z,51.07
2023-01-25T12:10:34.726Z,44.10
2023-01-25T12:13:17.113Z,42.77
2023-01-25T12:15:49.904Z,47.00
2023-01-25T12:18:36.304Z,40.20
2023-01-25T12:21:17.471Z,39.60
2023-01-25T12:23:56.231Z,46.97
2023-01-25T12:26:30.391Z,41.73
2023-01-25T12:29:05.896Z,42.23
2023-01-25T12:32:03.163Z,45.27
2023-01-25T12:34:37.630Z,38.47
2023-01-25T12:37:18.926Z,41.03
2023-01-25T12:40:15.319Z,45.63
2023-01-25T12:42:52.033Z,39.37
2023-01-25T12:45:25.352Z,42.97
2023-01-25T12:47:54.858Z,45.00
2023-01-25T12:50:25.865Z,53.43
2023-01-25T12:53:13.947Z,45.10
2023-01-25T12:55:41.720Z,44.70
2023-01-25T12:58:40.298Z,49.13
2023-01-25T13:01:30.859Z,41.37
2023-01-25T13:04:19.426Z,52.43
2023-01-25T13:06:55.004Z,46.63
2023-01-25T13:09:34.980Z,48.53
2023-01-25T13:12:12.482Z,45.53
2023-01-25T13:14:41.494Z,47.83
2023-01-25T13:17:30.766Z,50.20
2023-01-25T13:19:59.590Z,42.23
2023-01-25T13:22:45.289Z,44.07
2023-01-25T13:25:24.421Z,55.03
2023-01-25T13:27:52.738Z,48.60
2023-01-25T13:30:22.200Z,46.23
2023-01-25T13:32:49.408Z,46.57
2023-01-25T13:35:27.271Z,49.17
2023-01-25T13:38:05.824Z,38.97
2023-01-25T13:40:38.318Z,43.23
2023-01-25T13:43:13.085Z,45.67
2023-01-25T13:45:42.437Z,51.73
2023-01-25T13:48:21.934Z,42.27
2023-01-25T13:51:14.213Z,47.83
2023-01-25T13:53:43.360Z,46.63
2023-01-25T13:56:37.512Z,47.07
2023-01-25T13:59:04.847Z,43.23
2023-01-25T14:01:34.187Z,42.60
2023-01-25T14:04:04.710Z,51.47
2023-01-25T14:06:37.098Z,46.57
2023-01-25T14:09:16.869Z,44.60
2023-01-25T14:11:58.683Z,45.77
2023-01-25T14:14:31.414Z,46.50
2023-01-25T14:17:18.068Z,40.13
2023-01-25T14:19:49.853Z,46.53
2023-01-25T14:22:20.177Z,52.13
2023-01-25T14:25:09.661Z,54.73
2023-01-25T14:27:43.479Z,52.47
2023-01-25T14:30:22.285Z,45.07
2023-01-25T14:32:51.510Z,46.97
2023-01-25T14:35:43.260Z,45.03
2023-01-25T14:38:37.216Z,46.33
2023-01-25T14:41:40.103Z,47.40
2023-01-25T14:44:14.718Z,48.83
2023-01-25T14:46:42.201Z,52.60
2023-01-25T14:49:28.813Z,46.40
2023-01-25T14:52:05.124Z,45.90
2023-01-25T14:54:37.900Z,46.97
2023-01-25T14:57:07.534Z,43.27
2023-01-25T14:59:41.772Z,47.50
2023-01-25T15:02:46.117Z,39.40
2023-01-25T15:05:20.520Z,38.67
2023-01-25T15:08:12.261Z,41.83
2023-01-25T15:11:18.852Z,39.73
2023-01-25T15:13:46.699Z,42.07
2023-01-25T15:16:16.439Z,38.57
2023-01-25T15:18:51.287Z,41.83
2023-01-25T15:21:19.407Z,40.03
2023-01-25T15:23:48.773Z,36.83
2023-01-25T15:26:21.774Z,38.07
2023-01-25T15:28:50.839Z,37.43
2023-01-25T15:31:21.570Z,39.53
2023-01-25T15:33:48.960Z,37.73
2023-01-25T15:36:17.795Z,38.57
2023-01-25T15:38:45.619Z,37.50
2023-01-25T15:41:13.791Z,36.20
2023-01-25T15:43:41.960Z,36.10
2023-01-25T15:46:27.904Z,35.87
2023-01-25T15:48:55.937Z,44.03
2023-01-25T15:51:23.560Z,43.10
2023-01-25T15:53:50.970Z,41.17
2023-01-25T15:56:28.500Z,38.57
2023-01-25T15:58:58.889Z,41.47
2023-01-25T16:01:27.702Z,37.80
2023-01-25T16:03:56.532Z,36.37
2023-01-25T16:06:40.737Z,39.57
2023-01-25T16:09:19.852Z,43.37
2023-01-25T16:11:48.745Z,42.67
2023-01-25T16:14:16.004Z,42.13
2023-01-25T16:16:51.433Z,40.87
2023-01-25T16:19:22.009Z,48.33
2023-01-25T16:21:49.750Z,44.77
2023-01-25T16:24:17.903Z,44.83
2023-01-25T16:26:51.518Z,40.10
2023-01-25T16:29:18.936Z,41.93
2023-01-25T16:31:46.102Z,48.00
2023-01-25T16:34:13.450Z,41.23
2023-01-25T16:36:40.670Z,42.90
2023-01-25T16:39:20.080Z,44.97
2023-01-25T16:41:48.313Z,41.73
2023-01-25T16:44:16.467Z,41.27
2023-01-25T16:46:44.047Z,48.10
2023-01-25T16:49:16.935Z,41.40
2023-01-25T16:51:45.440Z,49.30
2023-01-25T16:54:12.845Z,45.50
2023-01-25T16:56:39.904Z,42.10
2023-01-25T16:59:09.331Z,43.93
2023-01-25T17:01:39.129Z,43.63
2023-01-25T17:04:06.990Z,47.53
2023-01-25T17:06:36.258Z,40.57
2023-01-25T17:09:20.407Z,40.33
2023-01-25T17:11:49.613Z,40.60
2023-01-25T17:14:19.083Z,42.20
2023-01-25T17:16:48.395Z,41.43
2023-01-25T17:19:17.171Z,40.80
2023-01-25T17:21:45.226Z,37.87
2023-01-25T17:24:19.100Z,41.10
2023-01-25T17:26:46.441Z,40.13
2023-01-25T17:29:13.924Z,40.90
2023-01-25T17:31:42.247Z,46.73
2023-01-25T17:34:13.342Z,42.83
2023-01-25T17:36:40.360Z,44.47
2023-01-25T17:39:08.197Z,42.23
2023-01-25T17:41:35.450Z,44.63
2023-01-25T17:44:03.170Z,44.73
2023-01-25T17:46:34.570Z,42.07
2023-01-25T17:49:08.368Z,39.77
2023-01-25T17:51:36.582Z,37.27
2023-01-25T17:54:04.759Z,43.13
2023-01-25T17:56:32.026Z,40.07
2023-01-25T17:59:01.456Z,40.57
2023-01-25T18:01:32.079Z,38.33
2023-01-25T18:04:00.748Z,43.57
2023-01-25T18:06:30.868Z,40.13
2023-01-25T18:09:00.696Z,41.97
2023-01-25T18:11:33.390Z,45.47
2023-01-25T18:14:08.220Z,38.10
2023-01-25T18:16:38.721Z,38.47
2023-01-25T18:19:06.799Z,42.47
2023-01-25T18:21:34.034Z,38.10
2023-01-25T18:24:05.724Z,32.50
2023-01-25T18:26:35.615Z,37.27
2023-01-25T18:29:34.581Z,42.23
2023-01-25T18:32:01.643Z,38.73
2023-01-25T18:34:28.923Z,38.97
2023-01-25T18:36:59.312Z,36.13
2023-01-25T18:39:27.353Z,36.87
2023-01-25T18:41:54.977Z,40.30
2023-01-25T18:44:22.197Z,38.23
2023-01-25T18:46:49.302Z,40.53
2023-01-25T18:49:16.572Z,37.17
2023-01-25T18:52:04.862Z,37.60
2023-01-25T18:54:32.425Z,43.07
2023-01-25T18:57:00.479Z,39.60
2023-01-25T18:59:27.943Z,45.50
2023-01-25T19:01:54.951Z,40.13
2023-01-25T19:04:22.197Z,40.50
2023-01-25T19:06:53.734Z,35.37
2023-01-25T19:09:20.961Z,34.47
2023-01-25T19:11:47.870Z,45.83
2023-01-25T19:14:15.256Z,41.90
2023-01-25T19:16:42.190Z,42.00
2023-01-25T19:19:09.860Z,38.13
2023-01-25T19:21:37.110Z,42.07
2023-01-25T19:24:04.635Z,37.00
2023-01-25T19:26:31.692Z,35.97
2023-01-25T19:28:58.896Z,41.50
2023-01-25T19:31:28.262Z,36.93
2023-01-25T19:34:00.427Z,33.77
2023-01-25T19:36:29.045Z,34.97
2023-01-25T19:38:59.718Z,37.27
2023-01-25T19:41:28.657Z,33.87
2023-01-25T19:44:03.643Z,42.13
2023-01-25T19:46:32.479Z,30.37
2023-01-25T19:49:01.909Z,33.93
2023-01-25T19:51:31.561Z,40.40
2023-01-25T19:54:04.612Z,44.07
2023-01-25T19:56:37.535Z,33.07
2023-01-25T19:59:06.808Z,38.37
2023-01-25T20:01:36.680Z,38.23
2023-01-25T20:04:06.060Z,36.37
2023-01-25T20:06:33.237Z,34.83
2023-01-25T20:09:00.497Z,40.37
2023-01-25T20:11:32.652Z,39.00
2023-01-25T20:14:02.276Z,41.43
2023-01-25T20:16:30.873Z,38.37
2023-01-25T20:18:58.499Z,36.27
2023-01-25T20:21:26.782Z,44.97
2023-01-25T20:23:58.398Z,36.03
2023-01-25T20:26:28.229Z,38.43
2023-01-25T20:28:57.498Z,41.77
2023-01-25T20:31:33.622Z,45.40
2023-01-25T20:34:03.641Z,36.30
2023-01-25T20:36:32.818Z,42.90
2023-01-25T20:39:00.642Z,37.20
2023-01-25T20:41:27.760Z,36.57
2023-01-25T20:44:04.471Z,39.73
2023-01-25T20:46:34.682Z,40.53
2023-01-25T20:49:02.256Z,40.63
2023-01-25T20:51:29.662Z,44.77
2023-01-25T20:53:57.568Z,38.47
2023-01-25T20:56:24.731Z,35.80
2023-01-25T20:58:52.864Z,41.27
2023-01-25T21:01:33.376Z,40.17
2023-01-25T21:04:00.579Z,47.20
2023-01-25T21:06:28.151Z,41.07
2023-01-25T21:08:55.416Z,35.37
2023-01-25T21:11:25.921Z,41.53
2023-01-25T21:13:54.109Z,40.03
2023-01-25T21:16:22.900Z,38.97
2023-01-25T21:18:52.652Z,40.87
2023-01-25T21:21:22.204Z,40.07
2023-01-25T21:23:50.722Z,41.67
2023-01-25T21:26:20.385Z,47.37
2023-01-25T21:28:48.369Z,38.27
2023-01-25T21:31:18.461Z,41.83
2023-01-25T21:33:46.970Z,40.27
2023-01-25T21:36:15.192Z,46.00
2023-01-25T21:38:44.627Z,44.50
2023-01-25T21:41:14.408Z,40.03
2023-01-25T21:44:00.264Z,42.43
2023-01-25T21:46:28.346Z,42.53
2023-01-25T21:49:18.296Z,46.30
2023-01-25T21:51:49.445Z,43.43
2023-01-25T21:54:21.990Z,43.83
2023-01-25T21:56:51.117Z,41.90
2023-01-25T21:59:19.107Z,41.80
2023-01-25T22:01:46.928Z,43.03
2023-01-25T22:04:16.367Z,40.57
2023-01-25T22:06:43.871Z,43.73
2023-01-25T22:09:13.297Z,40.03
2023-01-25T22:11:40.405Z,36.77
2023-01-25T22:14:07.851Z,39.47
2023-01-25T22:16:34.776Z,44.23
2023-01-25T22:19:02.011Z,42.40
2023-01-25T22:21:32.071Z,44.47
2023-01-25T22:24:01.637Z,42.33
2023-01-25T22:26:57.711Z,47.87
2023-01-25T22:29:25.433Z,44.70
2023-01-25T22:31:52.414Z,42.40
2023-01-25T22:34:19.694Z,44.90
2023-01-25T22:36:46.629Z,44.80
2023-01-25T22:39:15.012Z,45.80
2023-01-25T22:41:42.385Z,48.33
2023-01-25T22:44:10.082Z,41.13
2023-01-25T22:46:37.210Z,42.73
2023-01-25T22:49:04.943Z,47.10
2023-01-25T22:51:32.506Z,43.77
2023-01-25T22:54:00.624Z,50.27
2023-01-25T22:56:30.069Z,44.90
2023-01-25T22:58:59.553Z,55.27
2023-01-25T23:01:31.656Z,46.43
2023-01-25T23:03:59.617Z,42.63
2023-01-25T23:06:29.467Z,40.77
2023-01-25T23:08:59.907Z,49.00
2023-01-25T23:11:32.407Z,48.73
2023-01-25T23:14:18.602Z,42.97
2023-01-25T23:16:45.950Z,51.13
2023-01-25T23:19:14.525Z,47.77
2023-01-25T23:21:42.313Z,49.23
2023-01-25T23:24:10.505Z,49.00
2023-01-25T23:26:38.307Z,49.43
2023-01-25T23:29:08.619Z,47.87
2023-01-25T23:31:36.170Z,48.17
2023-01-25T23:34:05.282Z,49.90
2023-01-25T23:36:34.986Z,45.80
2023-01-25T23:39:02.479Z,45.47
2023-01-25T23:41:30.308Z,46.47
2023-01-25T23:43:58.167Z,46.90
2023-01-25T23:46:26.022Z,42.73
2023-01-25T23:48:53.298Z,44.77
2023-01-25T23:51:20.845Z,42.23
2023-01-25T23:53:48.101Z,44.93
2023-01-25T23:56:21.347Z,42.90
2023-01-25T23:58:49.065Z,44.50
